sensor_id;sensor_type;location;lat;lon;timestamp;P1;durP1;ratioP1;P2;durP2;ratioP2
8413;SDS011;4244;48.684;9.028;2024-03-02T00:00:08;8.63;;;7.07;;
8413;SDS011;4244;48.684;9.028;2024-03-02T00:02:44;7.70;;;6.93;;
8413;SDS011;4244;48.684;9.028;2024-03-02T00:05:13;8.73;;;7.93;;
8413;SDS011;4244;48.684;9.028;2024-03-02T00:07:53;7.63;;;6.93;;
8413;SDS011;4244;48.684;9.028;2024-03-02T00:10:22;10.00;;;8.97;;
8413;SDS011;4244;48.684;9.028;2024-03-02T00:12:53;8.80;;;8.00;;
8413;SDS011;4244;48.684;9.028;2024-03-02T00:15:37;9.23;;;7.97;;
8413;SDS011;4244;48.684;9.028;2024-03-02T00:18:13;7.80;;;7.03;;
8413;SDS011;4244;48.684;9.028;2024-03-02T00:20:40;9.93;;;8.97;;
8413;SDS011;4244;48.684;9.028;2024-03-02T00:23:06;9.13;;;8.23;;
8413;SDS011;4244;48.684;9.028;2024-03-02T00:28:14;10.50;;;9.07;;
8413;SDS011;4244;48.684;9.028;2024-03-02T00:33:42;8.87;;;7.60;;
8413;SDS011;4244;48.684;9.028;2024-03-02T00:36:09;8.80;;;7.90;;
8413;SDS011;4244;48.684;9.028;2024-03-02T00:38:41;8.93;;;7.50;;
8413;SDS011;4244;48.684;9.028;2024-03-02T00:41:21;9.23;;;8.10;;
8413;SDS011;4244;48.684;9.028;2024-03-02T00:46:35;9.33;;;8.20;;
8413;SDS011;4244;48.684;9.028;2024-03-02T00:49:02;9.33;;;8.33;;
8413;SDS011;4244;48.684;9.028;2024-03-02T00:51:30;10.00;;;8.17;;
8413;SDS011;4244;48.684;9.028;2024-03-02T00:54:00;10.23;;;9.00;;
8413;SDS011;4244;48.684;9.028;2024-03-02T00:56:30;11.23;;;8.93;;
8413;SDS011;4244;48.684;9.028;2024-03-02T00:58:56;9.77;;;8.77;;
8413;SDS011;4244;48.684;9.028;2024-03-02T01:01:22;9.27;;;8.23;;
8413;SDS011;4244;48.684;9.028;2024-03-02T01:03:47;11.33;;;9.83;;
8413;SDS011;4244;48.684;9.028;2024-03-02T01:06:14;10.77;;;9.67;;
8413;SDS011;4244;48.684;9.028;2024-03-02T01:08:40;13.17;;;10.77;;
8413;SDS011;4244;48.684;9.028;2024-03-02T01:11:06;13.93;;;10.73;;
8413;SDS011;4244;48.684;9.028;2024-03-02T01:13:32;14.80;;;11.03;;
8413;SDS011;4244;48.684;9.028;2024-03-02T01:15:58;10.70;;;9.60;;
8413;SDS011;4244;48.684;9.028;2024-03-02T01:18:24;12.83;;;11.43;;
8413;SDS011;4244;48.684;9.028;2024-03-02T01:20:50;13.30;;;12.00;;
8413;SDS011;4244;48.684;9.028;2024-03-02T01:23:21;12.47;;;10.00;;
8413;SDS011;4244;48.684;9.028;2024-03-02T01:25:47;12.77;;;10.67;;
8413;SDS011;4244;48.684;9.028;2024-03-02T01:28:14;11.23;;;10.03;;
8413;SDS011;4244;48.684;9.028;2024-03-02T01:30:40;12.40;;;10.20;;
8413;SDS011;4244;48.684;9.028;2024-03-02T01:33:06;11.30;;;10.00;;
8413;SDS011;4244;48.684;9.028;2024-03-02T01:35:32;12.20;;;10.90;;
8413;SDS011;4244;48.684;9.028;2024-03-02T01:37:58;12.10;;;10.90;;
8413;SDS011;4244;48.684;9.028;2024-03-02T01:40:23;12.70;;;10.30;;
8413;SDS011;4244;48.684;9.028;2024-03-02T01:42:51;13.27;;;10.60;;
8413;SDS011;4244;48.684;9.028;2024-03-02T01:45:18;12.30;;;10.10;;
8413;SDS011;4244;48.684;9.028;2024-03-02T01:47:44;13.57;;;11.07;;
8413;SDS011;4244;48.684;9.028;2024-03-02T01:50:11;12.13;;;10.90;;
8413;SDS011;4244;48.684;9.028;2024-03-02T01:52:37;14.83;;;12.33;;
8413;SDS011;4244;48.684;9.028;2024-03-02T01:55:03;14.73;;;11.90;;
8413;SDS011;4244;48.684;9.028;2024-03-02T01:57:29;11.70;;;10.50;;
8413;SDS011;4244;48.684;9.028;2024-03-02T01:59:55;14.10;;;12.60;;
8413;SDS011;4244;48.684;9.028;2024-03-02T02:02:21;14.60;;;11.30;;
8413;SDS011;4244;48.684;9.028;2024-03-02T02:04:47;13.07;;;10.87;;
8413;SDS011;4244;48.684;9.028;2024-03-02T02:07:15;13.83;;;11.70;;
8413;SDS011;4244;48.684;9.028;2024-03-02T02:09:41;12.07;;;10.33;;
8413;SDS011;4244;48.684;9.028;2024-03-02T02:12:08;12.63;;;11.37;;
8413;SDS011;4244;48.684;9.028;2024-03-02T02:14:35;11.27;;;10.17;;
8413;SDS011;4244;48.684;9.028;2024-03-02T02:17:01;12.13;;;10.73;;
8413;SDS011;4244;48.684;9.028;2024-03-02T02:19:27;11.77;;;10.57;;
8413;SDS011;4244;48.684;9.028;2024-03-02T02:21:52;15.27;;;11.00;;
8413;SDS011;4244;48.684;9.028;2024-03-02T02:24:18;12.73;;;11.27;;
8413;SDS011;4244;48.684;9.028;2024-03-02T02:26:44;12.43;;;11.00;;
8413;SDS011;4244;48.684;9.028;2024-03-02T02:29:09;15.27;;;12.60;;
8413;SDS011;4244;48.684;9.028;2024-03-02T02:31:38;14.40;;;11.10;;
8413;SDS011;4244;48.684;9.028;2024-03-02T02:34:07;14.27;;;12.47;;
8413;SDS011;4244;48.684;9.028;2024-03-02T02:36:34;13.43;;;11.93;;
8413;SDS011;4244;48.684;9.028;2024-03-02T02:39:05;13.30;;;11.07;;
8413;SDS011;4244;48.684;9.028;2024-03-02T02:41:33;14.27;;;11.40;;
8413;SDS011;4244;48.684;9.028;2024-03-02T02:43:58;13.17;;;11.73;;
8413;SDS011;4244;48.684;9.028;2024-03-02T02:46:24;12.40;;;10.73;;
8413;SDS011;4244;48.684;9.028;2024-03-02T02:48:50;13.30;;;11.50;;
8413;SDS011;4244;48.684;9.028;2024-03-02T02:51:18;13.03;;;10.67;;
8413;SDS011;4244;48.684;9.028;2024-03-02T02:53:43;12.10;;;10.80;;
8413;SDS011;4244;48.684;9.028;2024-03-02T02:56:09;12.70;;;11.17;;
8413;SDS011;4244;48.684;9.028;2024-03-02T02:58:35;12.80;;;10.80;;
8413;SDS011;4244;48.684;9.028;2024-03-02T03:01:00;14.03;;;11.37;;
8413;SDS011;4244;48.684;9.028;2024-03-02T03:03:26;11.60;;;10.37;;
8413;SDS011;4244;48.684;9.028;2024-03-02T03:09:14;12.90;;;9.87;;
8413;SDS011;4244;48.684;9.028;2024-03-02T03:11:39;13.40;;;11.20;;
8413;SDS011;4244;48.684;9.028;2024-03-02T03:14:05;10.60;;;9.50;;
8413;SDS011;4244;48.684;9.028;2024-03-02T03:16:31;12.10;;;10.80;;
8413;SDS011;4244;48.684;9.028;2024-03-02T03:18:56;15.00;;;10.67;;
8413;SDS011;4244;48.684;9.028;2024-03-02T03:21:22;13.00;;;10.80;;
8413;SDS011;4244;48.684;9.028;2024-03-02T03:23:48;12.43;;;10.73;;
8413;SDS011;4244;48.684;9.028;2024-03-02T03:26:14;13.67;;;11.87;;
8413;SDS011;4244;48.684;9.028;2024-03-02T03:28:39;11.40;;;10.30;;
8413;SDS011;4244;48.684;9.028;2024-03-02T03:31:05;14.43;;;11.23;;
8413;SDS011;4244;48.684;9.028;2024-03-02T03:33:31;13.57;;;10.70;;
8413;SDS011;4244;48.684;9.028;2024-03-02T03:35:56;14.70;;;11.87;;
8413;SDS011;4244;48.684;9.028;2024-03-02T03:38:22;12.33;;;11.07;;
8413;SDS011;4244;48.684;9.028;2024-03-02T03:40:48;13.13;;;11.57;;
8413;SDS011;4244;48.684;9.028;2024-03-02T03:43:13;12.90;;;10.90;;
8413;SDS011;4244;48.684;9.028;2024-03-02T03:45:39;14.57;;;10.70;;
8413;SDS011;4244;48.684;9.028;2024-03-02T03:48:05;11.47;;;10.23;;
8413;SDS011;4244;48.684;9.028;2024-03-02T03:50:30;9.00;;;8.10;;
8413;SDS011;4244;48.684;9.028;2024-03-02T03:52:56;11.30;;;10.10;;
8413;SDS011;4244;48.684;9.028;2024-03-02T03:55:22;12.70;;;11.30;;
8413;SDS011;4244;48.684;9.028;2024-03-02T03:57:47;12.10;;;10.80;;
8413;SDS011;4244;48.684;9.028;2024-03-02T04:00:13;12.40;;;10.37;;
8413;SDS011;4244;48.684;9.028;2024-03-02T04:02:39;11.60;;;10.37;;
8413;SDS011;4244;48.684;9.028;2024-03-02T04:05:05;12.03;;;9.80;;
8413;SDS011;4244;48.684;9.028;2024-03-02T04:07:34;11.90;;;10.23;;
8413;SDS011;4244;48.684;9.028;2024-03-02T04:10:05;12.30;;;11.00;;
8413;SDS011;4244;48.684;9.028;2024-03-02T04:12:33;12.37;;;11.10;;
8413;SDS011;4244;48.684;9.028;2024-03-02T04:14:59;12.77;;;10.77;;
8413;SDS011;4244;48.684;9.028;2024-03-02T04:17:26;12.27;;;10.33;;
8413;SDS011;4244;48.684;9.028;2024-03-02T04:19:52;11.73;;;10.53;;
8413;SDS011;4244;48.684;9.028;2024-03-02T04:22:18;12.77;;;10.70;;
8413;SDS011;4244;48.684;9.028;2024-03-02T04:24:43;11.80;;;10.00;;
8413;SDS011;4244;48.684;9.028;2024-03-02T04:27:09;11.27;;;9.57;;
8413;SDS011;4244;48.684;9.028;2024-03-02T04:29:34;12.70;;;10.00;;
8413;SDS011;4244;48.684;9.028;2024-03-02T04:32:00;10.40;;;8.97;;
8413;SDS011;4244;48.684;9.028;2024-03-02T04:34:26;10.70;;;8.87;;
8413;SDS011;4244;48.684;9.028;2024-03-02T04:36:51;11.80;;;10.20;;
8413;SDS011;4244;48.684;9.028;2024-03-02T04:39:17;11.70;;;10.47;;
8413;SDS011;4244;48.684;9.028;2024-03-02T04:41:43;10.23;;;9.07;;
8413;SDS011;4244;48.684;9.028;2024-03-02T04:44:09;11.63;;;9.67;;
8413;SDS011;4244;48.684;9.028;2024-03-02T04:46:34;11.20;;;10.00;;
8413;SDS011;4244;48.684;9.028;2024-03-02T04:49:00;11.27;;;10.07;;
8413;SDS011;4244;48.684;9.028;2024-03-02T04:51:25;12.03;;;10.07;;
8413;SDS011;4244;48.684;9.028;2024-03-02T04:53:51;10.13;;;9.13;;
8413;SDS011;4244;48.684;9.028;2024-03-02T04:56:17;10.33;;;8.90;;
8413;SDS011;4244;48.684;9.028;2024-03-02T04:59:04;12.37;;;9.60;;
8413;SDS011;4244;48.684;9.028;2024-03-02T05:01:31;10.10;;;9.07;;
8413;SDS011;4244;48.684;9.028;2024-03-02T05:03:58;9.97;;;8.63;;
8413;SDS011;4244;48.684;9.028;2024-03-02T05:06:23;13.10;;;9.60;;
8413;SDS011;4244;48.684;9.028;2024-03-02T05:08:49;10.87;;;9.63;;
8413;SDS011;4244;48.684;9.028;2024-03-02T05:11:14;11.27;;;9.83;;
8413;SDS011;4244;48.684;9.028;2024-03-02T05:14:15;10.37;;;9.23;;
8413;SDS011;4244;48.684;9.028;2024-03-02T05:16:41;11.20;;;9.53;;
8413;SDS011;4244;48.684;9.028;2024-03-02T05:19:07;11.40;;;10.20;;
8413;SDS011;4244;48.684;9.028;2024-03-02T05:21:33;10.27;;;8.13;;
8413;SDS011;4244;48.684;9.028;2024-03-02T05:23:59;10.83;;;9.23;;
8413;SDS011;4244;48.684;9.028;2024-03-02T05:26:24;10.73;;;8.90;;
8413;SDS011;4244;48.684;9.028;2024-03-02T05:28:50;10.70;;;9.00;;
8413;SDS011;4244;48.684;9.028;2024-03-02T05:31:16;11.93;;;9.50;;
8413;SDS011;4244;48.684;9.028;2024-03-02T05:33:42;9.67;;;8.30;;
8413;SDS011;4244;48.684;9.028;2024-03-02T05:36:08;10.50;;;8.57;;
8413;SDS011;4244;48.684;9.028;2024-03-02T05:38:36;8.97;;;8.00;;
8413;SDS011;4244;48.684;9.028;2024-03-02T05:41:02;9.80;;;8.63;;
8413;SDS011;4244;48.684;9.028;2024-03-02T05:43:28;10.63;;;8.70;;
8413;SDS011;4244;48.684;9.028;2024-03-02T05:45:54;10.80;;;9.70;;
8413;SDS011;4244;48.684;9.028;2024-03-02T05:48:19;10.00;;;8.70;;
8413;SDS011;4244;48.684;9.028;2024-03-02T05:50:45;10.60;;;9.13;;
8413;SDS011;4244;48.684;9.028;2024-03-02T05:53:11;12.20;;;8.97;;
8413;SDS011;4244;48.684;9.028;2024-03-02T05:55:36;10.90;;;9.37;;
8413;SDS011;4244;48.684;9.028;2024-03-02T05:58:02;11.17;;;9.27;;
8413;SDS011;4244;48.684;9.028;2024-03-02T06:00:30;10.43;;;8.80;;
8413;SDS011;4244;48.684;9.028;2024-03-02T06:02:56;10.13;;;8.50;;
8413;SDS011;4244;48.684;9.028;2024-03-02T06:05:22;10.60;;;9.50;;
8413;SDS011;4244;48.684;9.028;2024-03-02T06:07:47;8.93;;;7.73;;
8413;SDS011;4244;48.684;9.028;2024-03-02T06:10:13;10.67;;;8.77;;
8413;SDS011;4244;48.684;9.028;2024-03-02T06:12:39;8.40;;;7.47;;
8413;SDS011;4244;48.684;9.028;2024-03-02T06:15:05;8.60;;;7.73;;
8413;SDS011;4244;48.684;9.028;2024-03-02T06:17:31;14.20;;;10.90;;
8413;SDS011;4244;48.684;9.028;2024-03-02T06:19:57;15.50;;;12.80;;
8413;SDS011;4244;48.684;9.028;2024-03-02T06:22:23;18.57;;;15.97;;
8413;SDS011;4244;48.684;9.028;2024-03-02T06:24:50;16.70;;;14.40;;
8413;SDS011;4244;48.684;9.028;2024-03-02T06:27:16;19.07;;;14.70;;
8413;SDS011;4244;48.684;9.028;2024-03-02T06:29:42;16.23;;;14.00;;
8413;SDS011;4244;48.684;9.028;2024-03-02T06:32:07;14.13;;;11.90;;
8413;SDS011;4244;48.684;9.028;2024-03-02T06:34:33;14.50;;;11.73;;
8413;SDS011;4244;48.684;9.028;2024-03-02T06:36:59;12.10;;;10.80;;
8413;SDS011;4244;48.684;9.028;2024-03-02T06:39:24;11.67;;;10.47;;
8413;SDS011;4244;48.684;9.028;2024-03-02T06:41:51;12.63;;;11.20;;
8413;SDS011;4244;48.684;9.028;2024-03-02T06:44:17;11.40;;;10.20;;
8413;SDS011;4244;48.684;9.028;2024-03-02T06:46:42;10.80;;;9.70;;
8413;SDS011;4244;48.684;9.028;2024-03-02T06:49:08;10.23;;;9.20;;
8413;SDS011;4244;48.684;9.028;2024-03-02T06:51:35;12.27;;;9.20;;
8413;SDS011;4244;48.684;9.028;2024-03-02T06:54:01;12.47;;;10.63;;
8413;SDS011;4244;48.684;9.028;2024-03-02T06:56:27;12.57;;;11.13;;
8413;SDS011;4244;48.684;9.028;2024-03-02T06:58:52;11.10;;;10.00;;
8413;SDS011;4244;48.684;9.028;2024-03-02T07:01:18;12.63;;;10.50;;
8413;SDS011;4244;48.684;9.028;2024-03-02T07:03:45;10.73;;;9.70;;
8413;SDS011;4244;48.684;9.028;2024-03-02T07:06:11;12.67;;;10.77;;
8413;SDS011;4244;48.684;9.028;2024-03-02T07:08:36;12.40;;;10.53;;
8413;SDS011;4244;48.684;9.028;2024-03-02T07:11:02;11.73;;;10.50;;
8413;SDS011;4244;48.684;9.028;2024-03-02T07:13:28;13.40;;;11.20;;
8413;SDS011;4244;48.684;9.028;2024-03-02T07:15:53;12.00;;;10.53;;
8413;SDS011;4244;48.684;9.028;2024-03-02T07:18:19;13.57;;;10.60;;
8413;SDS011;4244;48.684;9.028;2024-03-02T07:20:45;12.90;;;11.27;;
8413;SDS011;4244;48.684;9.028;2024-03-02T07:23:10;11.00;;;9.90;;
8413;SDS011;4244;48.684;9.028;2024-03-02T07:25:36;12.40;;;11.17;;
8413;SDS011;4244;48.684;9.028;2024-03-02T07:28:02;10.93;;;9.80;;
8413;SDS011;4244;48.684;9.028;2024-03-02T07:30:29;12.00;;;10.17;;
8413;SDS011;4244;48.684;9.028;2024-03-02T07:32:55;11.10;;;9.83;;
8413;SDS011;4244;48.684;9.028;2024-03-02T07:35:20;9.93;;;8.90;;
8413;SDS011;4244;48.684;9.028;2024-03-02T07:37:47;10.30;;;8.63;;
8413;SDS011;4244;48.684;9.028;2024-03-02T07:40:14;9.80;;;7.97;;
8413;SDS011;4244;48.684;9.028;2024-03-02T07:42:40;8.40;;;7.50;;
8413;SDS011;4244;48.684;9.028;2024-03-02T07:45:06;9.10;;;7.90;;
8413;SDS011;4244;48.684;9.028;2024-03-02T07:47:35;9.77;;;8.77;;
8413;SDS011;4244;48.684;9.028;2024-03-02T07:50:00;8.50;;;7.63;;
8413;SDS011;4244;48.684;9.028;2024-03-02T07:52:26;12.03;;;9.83;;
8413;SDS011;4244;48.684;9.028;2024-03-02T07:54:52;12.57;;;10.87;;
8413;SDS011;4244;48.684;9.028;2024-03-02T07:57:17;11.27;;;9.43;;
8413;SDS011;4244;48.684;9.028;2024-03-02T07:59:43;11.10;;;10.00;;
8413;SDS011;4244;48.684;9.028;2024-03-02T08:02:09;13.13;;;9.50;;
8413;SDS011;4244;48.684;9.028;2024-03-02T08:04:35;10.03;;;8.87;;
8413;SDS011;4244;48.684;9.028;2024-03-02T08:07:02;9.53;;;8.53;;
8413;SDS011;4244;48.684;9.028;2024-03-02T08:09:28;10.20;;;8.90;;
8413;SDS011;4244;48.684;9.028;2024-03-02T08:11:53;9.00;;;8.10;;
8413;SDS011;4244;48.684;9.028;2024-03-02T08:14:19;8.57;;;7.77;;
8413;SDS011;4244;48.684;9.028;2024-03-02T08:16:44;3.37;;;2.40;;
8413;SDS011;4244;48.684;9.028;2024-03-02T08:19:11;18.83;;;2.57;;
8413;SDS011;4244;48.684;9.028;2024-03-02T08:21:36;5.27;;;2.73;;
8413;SDS011;4244;48.684;9.028;2024-03-02T08:24:02;3.10;;;2.23;;
8413;SDS011;4244;48.684;9.028;2024-03-02T08:26:28;13.37;;;2.70;;
8413;SDS011;4244;48.684;9.028;2024-03-02T08:28:54;8.50;;;3.40;;
8413;SDS011;4244;48.684;9.028;2024-03-02T08:31:20;8.20;;;3.10;;
8413;SDS011;4244;48.684;9.028;2024-03-02T08:33:46;5.13;;;2.40;;
8413;SDS011;4244;48.684;9.028;2024-03-02T08:36:12;5.30;;;2.60;;
8413;SDS011;4244;48.684;9.028;2024-03-02T08:38:37;3.30;;;2.30;;
8413;SDS011;4244;48.684;9.028;2024-03-02T08:41:04;5.67;;;2.50;;
8413;SDS011;4244;48.684;9.028;2024-03-02T08:43:29;6.03;;;2.60;;
8413;SDS011;4244;48.684;9.028;2024-03-02T08:45:55;3.10;;;2.27;;
8413;SDS011;4244;48.684;9.028;2024-03-02T08:48:21;2.63;;;2.43;;
8413;SDS011;4244;48.684;9.028;2024-03-02T08:50:46;2.20;;;1.80;;
8413;SDS011;4244;48.684;9.028;2024-03-02T08:53:12;3.60;;;3.30;;
8413;SDS011;4244;48.684;9.028;2024-03-02T08:55:38;3.50;;;2.60;;
8413;SDS011;4244;48.684;9.028;2024-03-02T08:58:04;3.60;;;2.40;;
8413;SDS011;4244;48.684;9.028;2024-03-02T09:00:29;2.60;;;2.20;;
8413;SDS011;4244;48.684;9.028;2024-03-02T09:02:55;3.00;;;2.10;;
8413;SDS011;4244;48.684;9.028;2024-03-02T09:05:20;3.23;;;2.20;;
8413;SDS011;4244;48.684;9.028;2024-03-02T09:07:46;3.10;;;2.43;;
8413;SDS011;4244;48.684;9.028;2024-03-02T09:10:13;5.00;;;2.60;;
8413;SDS011;4244;48.684;9.028;2024-03-02T09:12:39;3.27;;;2.50;;
8413;SDS011;4244;48.684;9.028;2024-03-02T09:15:05;4.23;;;2.37;;
8413;SDS011;4244;48.684;9.028;2024-03-02T09:17:34;4.00;;;3.20;;
8413;SDS011;4244;48.684;9.028;2024-03-02T09:20:00;3.50;;;3.20;;
8413;SDS011;4244;48.684;9.028;2024-03-02T09:22:25;3.50;;;2.10;;
8413;SDS011;4244;48.684;9.028;2024-03-02T09:24:51;4.70;;;3.10;;
8413;SDS011;4244;48.684;9.028;2024-03-02T09:27:17;2.53;;;2.33;;
8413;SDS011;4244;48.684;9.028;2024-03-02T09:29:42;3.80;;;2.83;;
8413;SDS011;4244;48.684;9.028;2024-03-02T09:32:08;9.20;;;3.20;;
8413;SDS011;4244;48.684;9.028;2024-03-02T09:34:37;5.20;;;4.00;;
8413;SDS011;4244;48.684;9.028;2024-03-02T09:37:02;4.90;;;4.30;;
8413;SDS011;4244;48.684;9.028;2024-03-02T09:39:29;7.27;;;3.70;;
8413;SDS011;4244;48.684;9.028;2024-03-02T09:41:55;8.30;;;4.40;;
8413;SDS011;4244;48.684;9.028;2024-03-02T09:44:20;4.87;;;3.30;;
8413;SDS011;4244;48.684;9.028;2024-03-02T09:46:50;4.37;;;3.27;;
8413;SDS011;4244;48.684;9.028;2024-03-02T09:49:16;4.40;;;3.40;;
8413;SDS011;4244;48.684;9.028;2024-03-02T09:51:44;3.60;;;3.30;;
8413;SDS011;4244;48.684;9.028;2024-03-02T09:54:12;3.13;;;2.83;;
8413;SDS011;4244;48.684;9.028;2024-03-02T09:56:38;3.83;;;3.20;;
8413;SDS011;4244;48.684;9.028;2024-03-02T09:59:04;11.53;;;3.57;;
8413;SDS011;4244;48.684;9.028;2024-03-02T10:01:30;5.77;;;3.20;;
8413;SDS011;4244;48.684;9.028;2024-03-02T10:03:58;3.30;;;2.80;;
8413;SDS011;4244;48.684;9.028;2024-03-02T10:06:25;3.87;;;3.50;;
8413;SDS011;4244;48.684;9.028;2024-03-02T10:08:51;3.20;;;2.90;;
8413;SDS011;4244;48.684;9.028;2024-03-02T10:11:28;3.47;;;3.10;;
8413;SDS011;4244;48.684;9.028;2024-03-02T10:14:12;3.30;;;2.63;;
8413;SDS011;4244;48.684;9.028;2024-03-02T10:19:23;2.93;;;2.63;;
8413;SDS011;4244;48.684;9.028;2024-03-02T10:21:55;2.23;;;2.03;;
8413;SDS011;4244;48.684;9.028;2024-03-02T10:24:23;2.70;;;2.40;;
8413;SDS011;4244;48.684;9.028;2024-03-02T10:26:50;1.83;;;1.47;;
8413;SDS011;4244;48.684;9.028;2024-03-02T10:29:16;2.47;;;1.77;;
8413;SDS011;4244;48.684;9.028;2024-03-02T10:31:45;2.13;;;1.40;;
8413;SDS011;4244;48.684;9.028;2024-03-02T10:34:12;1.87;;;1.70;;
8413;SDS011;4244;48.684;9.028;2024-03-02T10:36:40;5.43;;;2.07;;
8413;SDS011;4244;48.684;9.028;2024-03-02T10:39:07;1.73;;;1.60;;
8413;SDS011;4244;48.684;9.028;2024-03-02T10:41:36;2.10;;;1.83;;
8413;SDS011;4244;48.684;9.028;2024-03-02T10:44:03;3.83;;;2.50;;
8413;SDS011;4244;48.684;9.028;2024-03-02T10:46:33;1.57;;;1.40;;
8413;SDS011;4244;48.684;9.028;2024-03-02T10:49:00;1.93;;;1.43;;
8413;SDS011;4244;48.684;9.028;2024-03-02T10:51:27;2.37;;;1.63;;
8413;SDS011;4244;48.684;9.028;2024-03-02T10:53:56;1.57;;;1.47;;
8413;SDS011;4244;48.684;9.028;2024-03-02T10:56:32;2.63;;;1.70;;
8413;SDS011;4244;48.684;9.028;2024-03-02T10:59:02;1.43;;;1.23;;
8413;SDS011;4244;48.684;9.028;2024-03-02T11:01:32;2.00;;;1.37;;
8413;SDS011;4244;48.684;9.028;2024-03-02T11:03:58;1.70;;;1.20;;
8413;SDS011;4244;48.684;9.028;2024-03-02T11:06:26;1.70;;;1.30;;
8413;SDS011;4244;48.684;9.028;2024-03-02T11:08:54;2.60;;;1.50;;
8413;SDS011;4244;48.684;9.028;2024-03-02T11:11:27;1.30;;;1.00;;
8413;SDS011;4244;48.684;9.028;2024-03-02T11:13:55;1.20;;;0.93;;
8413;SDS011;4244;48.684;9.028;2024-03-02T11:16:37;1.33;;;1.00;;
8413;SDS011;4244;48.684;9.028;2024-03-02T11:19:08;2.13;;;1.20;;
8413;SDS011;4244;48.684;9.028;2024-03-02T11:21:38;1.93;;;1.10;;
8413;SDS011;4244;48.684;9.028;2024-03-02T11:26:52;2.00;;;1.60;;
8413;SDS011;4244;48.684;9.028;2024-03-02T11:32:03;2.10;;;1.90;;
8413;SDS011;4244;48.684;9.028;2024-03-02T11:34:30;1.63;;;1.53;;
8413;SDS011;4244;48.684;9.028;2024-03-02T11:36:57;2.00;;;1.70;;
8413;SDS011;4244;48.684;9.028;2024-03-02T11:39:24;3.70;;;3.40;;
8413;SDS011;4244;48.684;9.028;2024-03-02T11:41:51;3.60;;;3.30;;
8413;SDS011;4244;48.684;9.028;2024-03-02T11:44:16;4.33;;;3.93;;
8413;SDS011;4244;48.684;9.028;2024-03-02T11:46:44;3.77;;;3.27;;
8413;SDS011;4244;48.684;9.028;2024-03-02T11:49:14;2.13;;;1.90;;
8413;SDS011;4244;48.684;9.028;2024-03-02T11:51:40;2.40;;;2.17;;
8413;SDS011;4244;48.684;9.028;2024-03-02T11:54:18;3.20;;;2.90;;
8413;SDS011;4244;48.684;9.028;2024-03-02T11:56:44;5.40;;;5.00;;
8413;SDS011;4244;48.684;9.028;2024-03-02T11:59:10;3.80;;;3.50;;
8413;SDS011;4244;48.684;9.028;2024-03-02T12:01:38;2.70;;;2.50;;
8413;SDS011;4244;48.684;9.028;2024-03-02T12:04:18;2.10;;;1.90;;
8413;SDS011;4244;48.684;9.028;2024-03-02T12:07:03;5.20;;;4.80;;
8413;SDS011;4244;48.684;9.028;2024-03-02T12:09:29;3.17;;;2.97;;
8413;SDS011;4244;48.684;9.028;2024-03-02T12:12:02;2.20;;;2.00;;
8413;SDS011;4244;48.684;9.028;2024-03-02T12:14:31;1.63;;;1.50;;
8413;SDS011;4244;48.684;9.028;2024-03-02T12:16:58;2.80;;;2.60;;
8413;SDS011;4244;48.684;9.028;2024-03-02T12:19:24;1.77;;;1.60;;
8413;SDS011;4244;48.684;9.028;2024-03-02T12:21:51;1.70;;;1.33;;
8413;SDS011;4244;48.684;9.028;2024-03-02T12:24:18;1.53;;;1.30;;
8413;SDS011;4244;48.684;9.028;2024-03-02T12:26:43;1.47;;;1.10;;
8413;SDS011;4244;48.684;9.028;2024-03-02T12:29:10;2.07;;;1.60;;
8413;SDS011;4244;48.684;9.028;2024-03-02T12:31:35;1.70;;;1.40;;
8413;SDS011;4244;48.684;9.028;2024-03-02T12:34:02;1.60;;;1.37;;
8413;SDS011;4244;48.684;9.028;2024-03-02T12:36:28;1.50;;;1.30;;
8413;SDS011;4244;48.684;9.028;2024-03-02T12:38:54;1.40;;;1.10;;
8413;SDS011;4244;48.684;9.028;2024-03-02T12:41:20;2.23;;;1.40;;
8413;SDS011;4244;48.684;9.028;2024-03-02T12:43:46;1.73;;;1.33;;
8413;SDS011;4244;48.684;9.028;2024-03-02T12:46:11;2.97;;;1.30;;
8413;SDS011;4244;48.684;9.028;2024-03-02T12:48:38;1.60;;;1.40;;
8413;SDS011;4244;48.684;9.028;2024-03-02T12:51:07;2.17;;;1.40;;
8413;SDS011;4244;48.684;9.028;2024-03-02T12:53:32;1.60;;;1.40;;
8413;SDS011;4244;48.684;9.028;2024-03-02T12:55:58;1.57;;;1.27;;
8413;SDS011;4244;48.684;9.028;2024-03-02T12:58:24;1.30;;;1.20;;
8413;SDS011;4244;48.684;9.028;2024-03-02T13:01:04;1.50;;;1.10;;
8413;SDS011;4244;48.684;9.028;2024-03-02T13:03:31;1.63;;;1.33;;
8413;SDS011;4244;48.684;9.028;2024-03-02T13:05:56;2.17;;;1.30;;
8413;SDS011;4244;48.684;9.028;2024-03-02T13:08:22;1.40;;;1.00;;
8413;SDS011;4244;48.684;9.028;2024-03-02T13:10:48;1.27;;;1.10;;
8413;SDS011;4244;48.684;9.028;2024-03-02T13:13:14;1.97;;;1.30;;
8413;SDS011;4244;48.684;9.028;2024-03-02T13:15:39;2.93;;;1.20;;
8413;SDS011;4244;48.684;9.028;2024-03-02T13:18:06;1.57;;;1.10;;
8413;SDS011;4244;48.684;9.028;2024-03-02T13:20:32;1.40;;;1.10;;
8413;SDS011;4244;48.684;9.028;2024-03-02T13:22:58;2.20;;;1.03;;
8413;SDS011;4244;48.684;9.028;2024-03-02T13:25:23;1.20;;;0.93;;
8413;SDS011;4244;48.684;9.028;2024-03-02T13:27:49;1.20;;;0.90;;
8413;SDS011;4244;48.684;9.028;2024-03-02T13:30:16;1.17;;;0.90;;
8413;SDS011;4244;48.684;9.028;2024-03-02T13:32:41;1.33;;;0.90;;
8413;SDS011;4244;48.684;9.028;2024-03-02T13:35:07;1.30;;;1.03;;
8413;SDS011;4244;48.684;9.028;2024-03-02T13:37:36;1.73;;;1.10;;
8413;SDS011;4244;48.684;9.028;2024-03-02T13:40:01;1.10;;;0.70;;
8413;SDS011;4244;48.684;9.028;2024-03-02T13:42:29;1.30;;;0.90;;
8413;SDS011;4244;48.684;9.028;2024-03-02T13:44:55;1.30;;;0.93;;
8413;SDS011;4244;48.684;9.028;2024-03-02T13:47:21;1.30;;;1.00;;
8413;SDS011;4244;48.684;9.028;2024-03-02T13:49:47;1.20;;;0.97;;
8413;SDS011;4244;48.684;9.028;2024-03-02T13:52:14;1.10;;;0.60;;
8413;SDS011;4244;48.684;9.028;2024-03-02T13:54:42;1.30;;;0.90;;
8413;SDS011;4244;48.684;9.028;2024-03-02T13:57:09;1.37;;;0.80;;
8413;SDS011;4244;48.684;9.028;2024-03-02T13:59:35;1.27;;;0.90;;
8413;SDS011;4244;48.684;9.028;2024-03-02T14:02:02;1.10;;;0.80;;
8413;SDS011;4244;48.684;9.028;2024-03-02T14:04:31;1.83;;;1.10;;
8413;SDS011;4244;48.684;9.028;2024-03-02T14:06:58;1.50;;;1.07;;
8413;SDS011;4244;48.684;9.028;2024-03-02T14:09:24;1.30;;;0.83;;
8413;SDS011;4244;48.684;9.028;2024-03-02T14:11:50;1.37;;;0.97;;
8413;SDS011;4244;48.684;9.028;2024-03-02T14:14:16;1.13;;;0.70;;
8413;SDS011;4244;48.684;9.028;2024-03-02T14:16:43;1.40;;;1.10;;
8413;SDS011;4244;48.684;9.028;2024-03-02T14:19:10;1.50;;;1.10;;
8413;SDS011;4244;48.684;9.028;2024-03-02T14:21:36;1.37;;;0.83;;
8413;SDS011;4244;48.684;9.028;2024-03-02T14:24:02;1.30;;;0.93;;
8413;SDS011;4244;48.684;9.028;2024-03-02T14:26:28;1.30;;;0.90;;
8413;SDS011;4244;48.684;9.028;2024-03-02T14:28:54;1.20;;;0.87;;
8413;SDS011;4244;48.684;9.028;2024-03-02T14:31:20;1.40;;;1.10;;
8413;SDS011;4244;48.684;9.028;2024-03-02T14:33:46;1.27;;;0.90;;
8413;SDS011;4244;48.684;9.028;2024-03-02T14:36:12;1.20;;;0.90;;
8413;SDS011;4244;48.684;9.028;2024-03-02T14:38:38;1.23;;;0.80;;
8413;SDS011;4244;48.684;9.028;2024-03-02T14:41:04;1.30;;;1.07;;
8413;SDS011;4244;48.684;9.028;2024-03-02T14:43:30;1.63;;;0.90;;
8413;SDS011;4244;48.684;9.028;2024-03-02T14:45:56;1.33;;;1.03;;
8413;SDS011;4244;48.684;9.028;2024-03-02T14:48:22;1.30;;;0.90;;
8413;SDS011;4244;48.684;9.028;2024-03-02T14:50:48;2.70;;;1.37;;
8413;SDS011;4244;48.684;9.028;2024-03-02T14:53:13;1.80;;;1.20;;
8413;SDS011;4244;48.684;9.028;2024-03-02T14:55:39;1.57;;;1.17;;
8413;SDS011;4244;48.684;9.028;2024-03-02T14:58:05;1.67;;;1.00;;
8413;SDS011;4244;48.684;9.028;2024-03-02T15:00:30;2.37;;;1.10;;
8413;SDS011;4244;48.684;9.028;2024-03-02T15:02:56;1.53;;;1.40;;
8413;SDS011;4244;48.684;9.028;2024-03-02T15:05:22;1.70;;;1.20;;
8413;SDS011;4244;48.684;9.028;2024-03-02T15:07:47;1.50;;;1.23;;
8413;SDS011;4244;48.684;9.028;2024-03-02T15:10:13;1.50;;;1.17;;
8413;SDS011;4244;48.684;9.028;2024-03-02T15:12:39;1.60;;;1.50;;
8413;SDS011;4244;48.684;9.028;2024-03-02T15:15:04;1.77;;;1.40;;
8413;SDS011;4244;48.684;9.028;2024-03-02T15:17:30;1.70;;;1.40;;
8413;SDS011;4244;48.684;9.028;2024-03-02T15:19:56;1.40;;;1.23;;
8413;SDS011;4244;48.684;9.028;2024-03-02T15:22:22;2.27;;;1.77;;